Time;durP1;ratioP1;P1;durP2;ratioP2;P2;SDS_P1;SDS_P2;PMS_P1;PMS_P2;Temp;Humidity;BMP_temperature;BMP_pressure;BME280_temperature;BME280_humidity;BME280_pressure;Samples;Min_cycle;Max_cycle;Signal;HPM_P1;HPM_P2
2022/09/23 00:01:13;;;;;;;2.45;2.22;;;13.80;57.70;;;;;;4991005;28;20498;-53
2022/09/23 00:03:42;;;;;;;2.20;2.00;;;13.80;57.80;;;;;;4985295;28;20561;-49
2022/09/23 00:06:11;;;;;;;3.10;2.25;;;13.80;57.90;;;;;;4977833;28;20046;-53
2022/09/23 00:08:38;;;;;;;2.25;2.05;;;13.80;58.10;;;;;;4970721;28;20060;-53
2022/09/23 00:11:09;;;;;;;2.20;2.00;;;13.70;58.00;;;;;;4968568;28;20046;-53
2022/09/23 00:13:37;;;;;;;1.80;1.70;;;13.70;58.20;;;;;;4988426;28;20054;-52
2022/09/23 00:16:07;;;;;;;2.20;2.00;;;13.70;58.20;;;;;;4974738;28;20049;-49
2022/09/23 00:18:34;;;;;;;2.28;1.90;;;13.70;58.30;;;;;;4985503;28;20043;-52
2022/09/23 00:21:10;;;;;;;3.97;2.00;;;13.60;58.30;;;;;;4993560;28;20068;-52
2022/09/23 00:23:37;;;;;;;3.80;2.00;;;13.70;59.10;;;;;;4978061;28;20126;-52
2022/09/23 00:26:06;;;;;;;1.70;1.60;;;13.60;58.70;;;;;;4959508;28;20062;-52
2022/09/23 00:28:34;;;;;;;1.70;1.60;;;13.70;58.70;;;;;;4984067;28;20042;-51
2022/09/23 00:31:05;;;;;;;1.73;1.63;;;13.70;58.70;;;;;;4991827;28;20108;-52
2022/09/23 00:33:33;;;;;;;2.50;1.90;;;13.60;59.00;;;;;;4986929;28;20038;-49
2022/09/23 00:36:01;;;;;;;2.80;2.50;;;13.60;58.70;;;;;;4986466;28;20045;-54
2022/09/23 00:38:28;;;;;;;2.83;1.80;;;13.70;58.80;;;;;;4973157;28;20047;-53
2022/09/23 00:40:55;;;;;;;3.13;2.00;;;13.60;58.80;;;;;;4971728;28;20035;-52
2022/09/23 00:43:36;;;;;;;2.80;1.77;;;13.60;58.90;;;;;;4971980;28;20039;-53
2022/09/23 00:46:05;;;;;;;3.20;2.00;;;13.70;59.90;;;;;;4980302;28;20070;-53
2022/09/23 00:48:32;;;;;;;1.98;1.85;;;13.60;58.90;;;;;;4983645;28;20061;-53
2022/09/23 00:50:59;;;;;;;4.00;1.67;;;13.60;59.00;;;;;;4991437;28;20160;-52
2022/09/23 00:53:26;;;;;;;3.50;2.22;;;13.60;59.00;;;;;;4982162;28;20049;-51
2022/09/23 00:55:59;;;;;;;1.92;1.70;;;13.60;59.00;;;;;;4982510;28;20052;-50
2022/09/23 00:58:31;;;;;;;3.53;2.03;;;13.60;59.20;;;;;;4972822;28;20061;-50
2022/09/23 01:00:59;;;;;;;1.90;1.75;;;13.60;59.20;;;;;;4978402;28;20030;-53
2022/09/23 01:03:26;;;;;;;1.67;1.42;;;13.60;59.00;;;;;;4973320;28;20039;-53
2022/09/23 01:05:54;;;;;;;1.88;1.60;;;13.60;59.00;;;;;;4980210;28;20664;-51
2022/09/23 01:08:22;;;;;;;3.33;2.45;;;13.60;59.10;;;;;;4989503;28;20042;-51
2022/09/23 01:11:30;;;;;;;3.38;2.05;;;13.50;59.10;;;;;;4970811;28;20077;-52
2022/09/23 01:14:15;;;;;;;2.22;2.00;;;13.50;60.10;;;;;;4955971;28;20537;-52
2022/09/23 01:17:02;;;;;;;2.28;1.80;;;13.50;59.90;;;;;;4970544;28;20547;-53
2022/09/23 01:19:35;;;;;;;1.77;1.67;;;13.50;59.90;;;;;;4975606;28;20134;-53
2022/09/23 01:22:09;;;;;;;2.70;1.90;;;13.50;59.50;;;;;;4977796;28;20041;-53
2022/09/23 01:24:45;;;;;;;1.80;1.70;;;13.50;59.40;;;;;;4955152;28;20038;-54
2022/09/23 01:27:30;;;;;;;1.58;1.48;;;13.40;59.20;;;;;;4972219;28;20047;-53
2022/09/23 01:30:36;;;;;;;1.95;1.70;;;13.40;59.00;;;;;;4971344;28;20046;-54
2022/09/23 01:33:09;;;;;;;1.67;1.58;;;13.40;59.90;;;;;;4977007;28;20403;-54
2022/09/23 01:35:55;;;;;;;2.60;1.65;;;13.40;59.10;;;;;;4967412;28;20050;-53
2022/09/23 01:38:45;;;;;;;3.20;1.90;;;13.30;59.70;;;;;;4982808;28;20078;-53
2022/09/23 01:41:32;;;;;;;3.95;1.92;;;13.30;59.90;;;;;;4978189;28;20042;-54
2022/09/23 01:44:19;;;;;;;4.90;1.88;;;13.30;59.40;;;;;;4968158;28;20416;-53
2022/09/23 01:47:21;;;;;;;1.80;1.60;;;13.30;59.00;;;;;;4976646;28;20042;-53
2022/09/23 01:50:54;;;;;;;2.75;1.83;;;13.20;59.90;;;;;;4933198;28;20499;-54
2022/09/23 01:52:54;;;;;;;3.95;1.67;;;13.20;59.60;;;;;;4970100;28;20061;-53
2022/09/23 01:55:29;;;;;;;1.92;1.83;;;13.20;59.10;;;;;;4973356;28;20407;-51
2022/09/23 01:58:18;;;;;;;1.67;1.35;;;13.20;59.50;;;;;;4972964;28;20593;-54
2022/09/23 02:00:59;;;;;;;3.50;1.83;;;13.20;60.00;;;;;;4963149;28;20409;-53
2022/09/23 02:03:42;;;;;;;;;;;13.10;59.50;;;;;;4979152;28;20089;-52
2022/09/23 02:06:33;;;;;;;1.40;1.30;;;13.10;59.30;;;;;;4970065;28;19984;-52
2022/09/23 02:09:06;;;;;;;2.58;1.70;;;13.10;59.70;;;;;;4981921;28;20045;-53
2022/09/23 02:11:35;;;;;;;2.03;1.45;;;13.10;59.00;;;;;;4983035;28;20047;-51
2022/09/23 02:14:10;;;;;;;2.78;1.95;;;13.00;59.20;;;;;;4986038;28;20053;-52
2022/09/23 02:16:43;;;;;;;2.30;2.10;;;13.00;59.60;;;;;;4970571;28;20049;-53
2022/09/23 02:19:34;;;;;;;2.22;2.03;;;13.00;59.70;;;;;;4974783;28;20507;-53
2022/09/23 02:27:09;;;;;;;3.70;1.83;;;12.90;60.20;;;;;;4973039;28;20069;-50
2022/09/23 02:29:48;;;;;;;2.47;2.07;;;12.90;60.00;;;;;;4978853;28;20046;-52
2022/09/23 02:32:26;;;;;;;3.50;1.95;;;12.90;59.40;;;;;;4988627;28;20133;-50
2022/09/23 02:35:19;;;;;;;2.38;2.17;;;12.80;59.70;;;;;;4977081;28;20540;-48
2022/09/23 02:38:25;;;;;;;3.53;1.83;;;12.80;59.90;;;;;;4982709;28;20049;-53
2022/09/23 02:40:57;;;;;;;2.47;2.00;;;12.80;60.40;;;;;;4979743;28;20403;-51
2022/09/23 02:43:38;;;;;;;2.72;1.80;;;12.80;59.60;;;;;;4991025;28;20446;-53
2022/09/23 02:46:05;;;;;;;2.97;2.17;;;12.70;59.90;;;;;;4955845;28;20043;-52
2022/09/23 02:48:39;;;;;;;4.07;2.33;;;12.70;59.70;;;;;;4983446;28;20035;-49
2022/09/23 02:51:07;;;;;;;2.92;2.53;;;12.70;60.00;;;;;;4986775;28;20384;-52
2022/09/23 02:53:42;;;;;;;2.08;1.85;;;12.70;59.90;;;;;;4986225;28;20069;-52
2022/09/23 02:56:18;;;;;;;2.35;2.13;;;12.60;60.50;;;;;;4979401;28;20122;-48
2022/09/23 02:58:50;;;;;;;3.03;1.85;;;12.60;60.50;;;;;;4976993;28;20046;-49
2022/09/23 03:01:40;;;;;;;3.42;2.00;;;12.60;60.00;;;;;;4975225;28;20406;-49
2022/09/23 03:04:34;;;;;;;3.10;1.92;;;12.70;60.90;;;;;;4974094;28;20569;-49
2022/09/23 03:07:18;;;;;;;2.47;2.10;;;12.60;60.80;;;;;;4967985;28;20045;-51
2022/09/23 03:09:59;;;;;;;2.00;1.90;;;12.60;60.60;;;;;;4987813;28;20045;-52
2022/09/23 03:12:29;;;;;;;6.20;2.30;;;12.60;60.30;;;;;;4985199;28;20054;-52
2022/09/23 03:15:44;;;;;;;2.00;1.80;;;12.50;59.80;;;;;;4981724;28;20038;-52
2022/09/23 03:18:40;;;;;;;2.25;2.03;;;12.60;60.90;;;;;;4918922;28;20048;-54
2022/09/23 03:21:21;;;;;;;2.35;2.15;;;12.50;60.60;;;;;;4990784;28;20430;-52
2022/09/23 03:23:58;;;;;;;2.97;2.03;;;12.50;60.50;;;;;;4983406;28;20520;-52
2022/09/23 03:26:31;;;;;;;2.20;1.98;;;12.50;60.10;;;;;;4986335;28;20050;-52
2022/09/23 03:29:03;;;;;;;3.72;2.83;;;12.40;60.20;;;;;;4994556;28;20052;-49
2022/09/23 03:31:32;;;;;;;2.40;2.20;;;12.40;60.10;;;;;;4980111;28;20050;-48
2022/09/23 03:34:02;;;;;;;2.95;2.70;;;12.40;59.90;;;;;;4975222;28;20043;-52
2022/09/23 03:36:50;;;;;;;2.80;2.55;;;12.40;60.10;;;;;;4986086;28;20409;-53
2022/09/23 03:39:28;;;;;;;1.83;1.73;;;12.30;60.20;;;;;;4994408;28;20553;-49
2022/09/23 03:41:58;;;;;;;1.77;1.67;;;12.30;60.50;;;;;;4979732;28;20042;-53
2022/09/23 03:44:27;;;;;;;2.50;2.30;;;12.30;60.20;;;;;;4991475;23;20061;-91
2022/09/23 03:47:01;;;;;;;3.20;2.45;;;12.30;60.30;;;;;;4944310;28;20047;-92
2022/09/23 03:49:36;;;;;;;3.80;2.50;;;12.40;60.70;;;;;;4973133;28;20047;-92
2022/09/23 03:52:03;;;;;;;3.30;2.28;;;12.20;60.70;;;;;;4929530;29;20066;-91
2022/09/23 03:54:30;;;;;;;3.78;2.30;;;12.30;60.70;;;;;;4956679;28;20058;-92
2022/09/23 03:56:58;;;;;;;2.67;2.47;;;12.30;60.80;;;;;;4943113;28;20050;-92
2022/09/23 03:59:26;;;;;;;3.72;2.50;;;12.20;60.80;;;;;;4943866;28;20070;-92
2022/09/23 04:01:55;;;;;;;4.13;2.08;;;12.30;61.00;;;;;;4989757;28;20078;-92
2022/09/23 04:04:22;;;;;;;3.17;2.42;;;12.30;61.20;;;;;;4979331;28;20042;-92
2022/09/23 04:06:49;;;;;;;3.08;2.17;;;12.30;61.30;;;;;;4979523;28;20092;-93
2022/09/23 04:09:16;;;;;;;2.75;2.47;;;12.30;61.50;;;;;;4972184;28;20044;-93
2022/09/23 04:11:43;;;;;;;3.63;2.30;;;12.20;61.40;;;;;;4965898;28;20073;-94
2022/09/23 04:14:11;;;;;;;2.67;2.47;;;12.30;61.50;;;;;;4963103;28;20050;-93
2022/09/23 04:16:38;;;;;;;2.72;2.53;;;12.20;61.50;;;;;;4975744;28;20047;-93
2022/09/23 04:19:05;;;;;;;3.78;2.42;;;12.30;61.50;;;;;;4947233;28;20047;-95
2022/09/23 04:21:38;;;;;;;3.83;2.35;;;12.20;61.60;;;;;;4956018;29;20066;-93
2022/09/23 04:24:10;;;;;;;3.03;2.78;;;12.40;61.60;;;;;;4960040;28;20593;-93
2022/09/23 04:26:38;;;;;;;4.15;2.70;;;12.10;61.40;;;;;;4947343;28;20093;-92
2022/09/23 04:29:06;;;;;;;3.15;2.60;;;12.30;61.50;;;;;;4963304;28;20081;-91
2022/09/23 04:31:33;;;;;;;3.03;2.40;;;12.20;61.60;;;;;;4970388;28;20050;-93
2022/09/23 04:34:00;;;;;;;4.80;2.88;;;12.30;61.70;;;;;;4978371;28;20054;-92
2022/09/23 04:36:29;;;;;;;4.90;2.70;;;12.40;61.80;;;;;;4976268;28;20046;-92
2022/09/23 04:38:56;;;;;;;3.08;2.38;;;12.30;61.60;;;;;;4975558;28;20081;-92
2022/09/23 04:41:34;;;;;;;3.45;2.47;;;12.30;61.70;;;;;;4977291;28;20043;-92
2022/09/23 04:44:02;;;;;;;2.42;2.20;;;12.30;61.50;;;;;;4958760;28;20506;-92
2022/09/23 04:46:32;;;;;;;5.97;2.60;;;12.20;61.50;;;;;;4929804;28;20479;-92
2022/09/23 04:48:59;;;;;;;3.05;2.60;;;12.10;61.50;;;;;;4975132;28;20081;-93
2022/09/23 04:51:26;;;;;;;4.25;2.47;;;12.20;61.60;;;;;;4959099;28;20054;-92
2022/09/23 04:53:54;;;;;;;3.45;2.35;;;12.10;61.50;;;;;;4959132;28;20069;-92
2022/09/23 04:56:27;;;;;;;2.55;2.25;;;12.10;61.30;;;;;;4943250;28;20054;-92
2022/09/23 04:58:57;;;;;;;2.67;2.08;;;12.10;61.30;;;;;;4965025;28;20534;-93
2022/09/23 05:01:27;;;;;;;4.25;2.72;;;12.30;61.30;;;;;;4971670;28;20152;-93
2022/09/23 05:03:56;;;;;;;4.45;2.50;;;12.30;61.30;;;;;;4980179;28;20042;-92
2022/09/23 05:06:24;;;;;;;3.47;2.40;;;12.10;61.10;;;;;;4978035;28;20100;-92
2022/09/23 05:08:52;;;;;;;2.95;2.10;;;12.00;61.10;;;;;;4978822;28;20450;-92
2022/09/23 05:11:20;;;;;;;2.58;2.38;;;12.00;61.00;;;;;;4978373;28;20104;-93
2022/09/23 05:13:49;;;;;;;3.13;2.10;;;12.20;61.10;;;;;;4971145;28;20281;-93
2022/09/23 05:16:16;;;;;;;4.05;2.63;;;12.20;61.20;;;;;;4951821;28;20100;-93
2022/09/23 05:18:44;;;;;;;6.15;2.47;;;12.10;61.30;;;;;;4964796;28;20061;-93
2022/09/23 05:21:13;;;;;;;2.28;1.80;;;12.10;61.20;;;;;;4926321;29;20054;-92
2022/09/23 05:23:41;;;;;;;3.72;2.45;;;12.10;61.50;;;;;;4964554;28;20039;-92
2022/09/23 05:26:10;;;;;;;2.53;2.30;;;11.90;61.30;;;;;;4990327;28;20042;-92
2022/09/23 05:28:38;;;;;;;2.58;2.20;;;12.10;61.60;;;;;;4978620;28;20042;-93
2022/09/23 05:31:14;;;;;;;3.15;2.22;;;12.10;61.70;;;;;;4979153;28;20509;-93
2022/09/23 05:34:00;;;;;;;2.95;2.45;;;11.90;61.90;;;;;;4973694;28;20241;-93
2022/09/23 05:36:29;;;;;;;4.33;2.30;;;12.10;62.00;;;;;;4935545;29;20054;-93
2022/09/23 05:39:03;;;;;;;3.33;2.45;;;12.10;61.80;;;;;;4952586;28;20050;-93
2022/09/23 05:41:30;;;;;;;5.38;2.63;;;11.90;62.00;;;;;;4979789;28;20050;-93
2022/09/23 05:43:59;;;;;;;4.65;2.90;;;12.10;62.20;;;;;;4966092;28;20526;-93
2022/09/23 05:46:28;;;;;;;3.75;2.00;;;12.10;62.30;;;;;;4960370;28;20050;-92
2022/09/23 05:48:57;;;;;;;2.88;2.58;;;12.10;62.40;;;;;;4945955;28;20046;-93
2022/09/23 05:51:29;;;;;;;5.70;2.80;;;12.10;62.50;;;;;;4960644;28;20050;-93
2022/09/23 05:53:58;;;;;;;3.10;2.63;;;12.10;62.60;;;;;;4936378;28;20764;-92
2022/09/23 05:56:27;;;;;;;3.42;2.60;;;12.00;62.80;;;;;;4941466;28;20117;-93
2022/09/23 05:58:56;;;;;;;3.67;2.80;;;12.20;63.10;;;;;;4962997;28;20112;-92
2022/09/23 06:01:32;;;;;;;3.38;2.50;;;12.20;63.20;;;;;;4976773;28;20045;-93
2022/09/23 06:04:02;;;;;;;7.72;3.25;;;12.10;63.50;;;;;;4969503;28;20163;-93
2022/09/23 06:06:32;;;;;;;4.10;3.50;;;12.30;63.40;;;;;;4964421;28;20053;-93
2022/09/23 06:08:59;;;;;;;4.10;3.65;;;12.40;63.60;;;;;;4959918;28;20550;-93
2022/09/23 06:11:29;;;;;;;6.40;4.10;;;12.30;63.60;;;;;;4959307;28;20102;-93
2022/09/23 06:14:01;;;;;;;4.70;3.90;;;12.50;63.70;;;;;;4976579;28;20058;-93
2022/09/23 06:16:31;;;;;;;4.20;3.80;;;12.40;63.60;;;;;;4976059;28;20055;-93
2022/09/23 06:19:00;;;;;;;4.97;4.28;;;12.60;63.70;;;;;;4975740;28;20505;-93
2022/09/23 06:21:37;;;;;;;6.10;4.50;;;12.70;63.70;;;;;;4979590;28;20039;-94
2022/09/23 06:24:05;;;;;;;6.63;4.57;;;12.60;63.50;;;;;;4962724;28;20043;-93
2022/09/23 06:26:33;;;;;;;6.15;4.85;;;12.70;63.50;;;;;;4944739;28;20042;-93
2022/09/23 06:29:01;;;;;;;7.10;5.05;;;12.90;63.70;;;;;;4956232;28;20063;-93
2022/09/23 06:31:29;;;;;;;6.43;4.78;;;12.80;63.70;;;;;;4958139;28;20038;-93
2022/09/23 06:33:56;;;;;;;6.88;5.50;;;12.90;63.70;;;;;;4940012;28;20074;-92
2022/09/23 06:36:36;;;;;;;7.13;5.68;;;13.00;63.70;;;;;;4946152;28;20046;-93
2022/09/23 06:39:10;;;;;;;7.75;6.25;;;13.10;63.70;;;;;;4949564;28;20059;-92
2022/09/23 06:41:38;;;;;;;9.02;6.88;;;13.20;63.80;;;;;;4959609;28;20133;-94
2022/09/23 06:44:10;;;;;;;8.32;6.53;;;13.30;63.80;;;;;;4958295;28;20047;-93
2022/09/23 06:46:37;;;;;;;8.55;6.28;;;13.40;63.80;;;;;;4949502;28;20550;-93
2022/09/23 06:49:07;;;;;;;7.63;5.68;;;13.30;63.90;;;;;;4958121;28;20054;-94
2022/09/23 06:51:34;;;;;;;6.05;4.88;;;13.50;63.90;;;;;;4957108;28;20047;-94
2022/09/23 06:54:01;;;;;;;6.60;4.90;;;13.60;64.10;;;;;;4953363;28;20051;-93
2022/09/23 06:56:28;;;;;;;5.25;4.28;;;13.60;64.00;;;;;;4961202;28;20108;-93
2022/09/23 06:59:00;;;;;;;5.30;4.22;;;13.80;64.10;;;;;;4951967;28;20051;-93
2022/09/23 07:01:27;;;;;;;4.72;4.00;;;13.90;63.90;;;;;;4950936;28;20142;-93
2022/09/23 07:03:54;;;;;;;4.63;4.13;;;14.00;64.00;;;;;;4957694;28;20043;-93
2022/09/23 07:06:21;;;;;;;4.60;4.20;;;14.00;63.80;;;;;;4957905;28;20049;-93
2022/09/23 07:08:48;;;;;;;6.82;4.38;;;14.10;63.80;;;;;;4970552;28;20043;-93
2022/09/23 07:11:18;;;;;;;6.57;4.32;;;14.20;63.50;;;;;;4949208;28;20075;-93
2022/09/23 07:13:45;;;;;;;5.13;4.20;;;14.20;63.50;;;;;;4958508;28;20050;-93
2022/09/23 07:16:12;;;;;;;5.03;4.50;;;14.20;63.50;;;;;;4963274;28;20051;-93
2022/09/23 07:18:39;;;;;;;5.25;4.50;;;14.40;63.30;;;;;;4963549;28;20038;-93
2022/09/23 07:21:12;;;;;;;12.52;5.35;;;14.50;63.40;;;;;;4960286;28;20122;-93
2022/09/23 07:23:40;;;;;;;6.88;5.32;;;14.50;63.40;;;;;;4944772;28;20058;-93
2022/09/23 07:26:07;;;;;;;6.22;4.53;;;14.60;63.30;;;;;;4954144;29;20043;-93
2022/09/23 07:28:46;;;;;;;5.93;5.10;;;14.60;63.50;;;;;;4956971;28;20110;-94
2022/09/23 07:31:16;;;;;;;7.03;4.93;;;14.60;63.60;;;;;;4967613;28;20474;-50
2022/09/23 07:33:56;;;;;;;6.45;4.80;;;14.60;63.00;;;;;;4969499;28;20172;-51
2022/09/23 07:36:23;;;;;;;6.60;5.03;;;14.70;63.00;;;;;;4969825;28;20054;-50
2022/09/23 07:38:50;;;;;;;5.28;4.28;;;14.80;62.90;;;;;;4963090;28;20043;-51
2022/09/23 07:41:18;;;;;;;8.18;5.38;;;14.90;62.70;;;;;;4974276;28;20070;-49
2022/09/23 07:43:45;;;;;;;7.15;4.50;;;15.00;62.70;;;;;;4974580;28;20495;-49
2022/09/23 07:46:15;;;;;;;6.20;4.47;;;15.10;62.70;;;;;;4973172;28;20057;-53
2022/09/23 07:48:43;;;;;;;5.30;4.78;;;15.10;62.60;;;;;;4974298;28;20450;-50
2022/09/23 07:51:15;;;;;;;8.68;5.25;;;15.20;62.20;;;;;;4973234;28;20073;-51
2022/09/23 07:53:42;;;;;;;7.53;4.25;;;15.20;62.10;;;;;;4974444;28;20049;-53
2022/09/23 07:56:10;;;;;;;5.85;4.53;;;15.30;62.00;;;;;;4954971;28;20039;-49
2022/09/23 07:58:36;;;;;;;5.10;4.10;;;15.40;61.80;;;;;;4965310;28;20039;-49
2022/09/23 08:01:09;;;;;;;6.85;3.75;;;15.40;61.80;;;;;;4974758;28;20507;-54
2022/09/23 08:03:36;;;;;;;6.72;3.97;;;15.50;61.80;;;;;;4973532;28;20042;-50
2022/09/23 08:06:11;;;;;;;4.93;3.63;;;15.50;61.70;;;;;;4974609;28;20888;-51
2022/09/23 08:08:42;;;;;;;4.03;3.70;;;15.60;62.20;;;;;;4973868;28;20039;-50
2022/09/23 08:11:10;;;;;;;4.43;3.78;;;15.60;61.70;;;;;;4972646;28;20122;-51
2022/09/23 08:13:40;;;;;;;3.92;3.42;;;15.70;61.70;;;;;;4973824;28;20038;-50
2022/09/23 08:16:07;;;;;;;5.40;4.15;;;15.70;61.70;;;;;;4970224;28;20046;-52
2022/09/23 08:18:36;;;;;;;6.45;3.80;;;15.70;61.80;;;;;;4977862;28;20030;-52
2022/09/23 08:21:03;;;;;;;6.35;3.90;;;15.70;61.70;;;;;;4988874;28;20042;-53
2022/09/23 08:23:33;;;;;;;4.63;3.60;;;15.80;61.80;;;;;;4973296;28;20046;-53
2022/09/23 08:26:02;;;;;;;5.22;3.70;;;15.80;61.90;;;;;;4974646;28;20030;-54
2022/09/23 08:28:30;;;;;;;3.97;3.20;;;15.90;62.00;;;;;;4974732;28;20118;-53
2022/09/23 08:31:00;;;;;;;3.88;3.25;;;15.90;62.00;;;;;;4973345;28;20415;-52
2022/09/23 08:33:31;;;;;;;8.05;3.63;;;15.90;61.80;;;;;;4971878;28;20503;-54
2022/09/23 08:36:00;;;;;;;5.18;3.45;;;16.10;61.70;;;;;;4974620;28;20049;-51
2022/09/23 08:38:29;;;;;;;4.15;3.08;;;16.10;61.70;;;;;;4974541;28;20414;-53
2022/09/23 08:41:19;;;;;;;3.28;2.30;;;16.20;61.60;;;;;;4973708;28;20046;-54
2022/09/23 08:43:49;;;;;;;2.75;2.17;;;16.40;60.90;;;;;;4967065;28;20484;-49
2022/09/23 08:46:33;;;;;;;3.40;2.53;;;16.40;60.50;;;;;;4974587;28;20125;-50
2022/09/23 08:49:06;;;;;;;2.42;2.00;;;16.50;60.70;;;;;;4954381;28;20074;-52
2022/09/23 08:51:45;;;;;;;2.20;2.00;;;16.70;59.20;;;;;;4971958;28;20073;-54
2022/09/23 08:54:12;;;;;;;2.05;1.90;;;16.80;59.00;;;;;;4956186;28;20527;-54
2022/09/23 08:56:42;;;;;;;3.47;2.15;;;17.00;58.80;;;;;;4974139;28;20058;-51
2022/09/23 08:59:28;;;;;;;6.65;2.22;;;17.10;57.70;;;;;;4974299;28;20074;-51
2022/09/23 09:02:04;;;;;;;2.40;2.10;;;17.20;57.60;;;;;;4952520;29;20283;-53
2022/09/23 09:04:48;;;;;;;2.53;1.60;;;17.40;56.50;;;;;;4973264;28;20046;-51
2022/09/23 09:07:20;;;;;;;4.78;2.53;;;17.50;56.20;;;;;;4974200;28;20074;-54
2022/09/23 09:10:24;;;;;;;4.35;1.85;;;17.60;56.60;;;;;;4973423;28;20093;-51
2022/09/23 09:13:06;;;;;;;2.40;2.13;;;17.80;55.90;;;;;;4969445;28;20110;-50
2022/09/23 09:15:42;;;;;;;1.90;1.80;;;18.00;55.30;;;;;;4976890;28;20490;-53
2022/09/23 09:18:20;;;;;;;2.80;1.75;;;18.10;55.10;;;;;;4978637;28;20075;-55
2022/09/23 09:21:08;;;;;;;1.70;1.60;;;18.20;54.60;;;;;;4962343;28;20043;-53
2022/09/23 09:23:42;;;;;;;1.70;1.55;;;18.30;54.40;;;;;;4972845;28;20047;-51
2022/09/23 09:26:22;;;;;;;3.95;1.90;;;18.50;54.10;;;;;;4973738;28;20054;-55
2022/09/23 09:28:58;;;;;;;2.83;1.75;;;18.60;53.80;;;;;;4972135;28;20047;-53
2022/09/23 09:31:47;;;;;;;2.85;1.60;;;18.70;53.50;;;;;;4969167;28;20062;-55
2022/09/23 09:34:29;;;;;;;7.22;2.50;;;18.80;53.30;;;;;;4972812;28;20046;-55
2022/09/23 09:37:05;;;;;;;4.55;2.05;;;18.90;53.00;;;;;;4973368;28;20059;-50
2022/09/23 09:39:34;;;;;;;3.38;1.75;;;19.00;52.60;;;;;;4973250;28;20062;-54
2022/09/23 09:42:04;;;;;;;3.28;1.75;;;19.00;53.00;;;;;;4972098;28;20077;-54
2022/09/23 09:44:38;;;;;;;2.58;1.85;;;19.10;52.50;;;;;;4972771;28;20050;-54
2022/09/23 09:47:05;;;;;;;2.83;1.80;;;19.10;52.50;;;;;;4971776;28;20402;-55
2022/09/23 09:49:45;;;;;;;2.33;1.90;;;19.20;51.90;;;;;;4973012;28;20566;-54
2022/09/23 09:52:28;;;;;;;2.13;1.70;;;19.30;51.20;;;;;;4972466;28;20050;-51
2022/09/23 09:55:21;;;;;;;1.63;1.40;;;19.40;51.10;;;;;;4973079;28;20050;-52
2022/09/23 09:57:54;;;;;;;2.38;1.80;;;19.40;51.40;;;;;;4972248;28;20035;-54
2022/09/23 10:00:21;;;;;;;3.80;1.65;;;19.40;51.80;;;;;;4971203;28;20046;-52
2022/09/23 10:03:16;;;;;;;1.70;1.60;;;19.50;52.00;;;;;;4971453;28;20487;-50
2022/09/23 10:05:42;;;;;;;2.80;1.65;;;19.50;51.20;;;;;;4961075;28;20042;-52
2022/09/23 10:08:17;;;;;;;2.53;1.83;;;19.60;51.90;;;;;;4972715;28;20089;-53
2022/09/23 10:10:54;;;;;;;2.92;1.75;;;19.60;51.60;;;;;;4958333;28;20039;-51
2022/09/23 10:13:26;;;;;;;3.22;1.98;;;19.70;51.50;;;;;;4964769;28;20050;-54
2022/09/23 10:15:53;;;;;;;2.40;1.65;;;19.70;51.10;;;;;;4967779;28;20076;-51
2022/09/23 10:18:48;;;;;;;2.83;1.90;;;19.70;51.10;;;;;;4969304;28;20046;-54
2022/09/23 10:21:19;;;;;;;2.45;2.25;;;19.80;49.80;;;;;;4981502;28;20051;-53
2022/09/23 10:23:57;;;;;;;2.22;1.80;;;19.80;50.80;;;;;;4965552;28;20062;-53
2022/09/23 10:26:53;;;;;;;1.80;1.58;;;19.80;50.80;;;;;;4971021;28;20126;-51
2022/09/23 10:29:36;;;;;;;2.25;1.58;;;19.90;50.90;;;;;;4955428;28;20043;-55
2022/09/23 10:32:13;;;;;;;3.13;1.83;;;19.90;50.80;;;;;;4960309;28;20042;-54
2022/09/23 10:34:45;;;;;;;4.28;2.30;;;20.00;51.10;;;;;;4970802;28;20051;-53
2022/09/23 10:37:16;;;;;;;3.80;1.77;;;20.00;51.70;;;;;;4973136;28;20138;-52
2022/09/23 10:48:35;;;;;;;2.40;2.08;;;20.20;50.70;;;;;;4971942;28;20062;-52
2022/09/23 10:51:13;;;;;;;3.30;1.88;;;20.20;50.70;;;;;;4971517;28;20419;-52
2022/09/23 10:54:04;;;;;;;1.85;1.73;;;20.30;50.30;;;;;;4971079;28;20101;-52
2022/09/23 10:56:49;;;;;;;2.88;1.65;;;20.30;49.10;;;;;;4971198;28;20078;-54
2022/09/23 10:59:34;;;;;;;3.58;1.80;;;20.40;49.20;;;;;;4970515;28;20054;-52
2022/09/23 11:02:43;;;;;;;2.40;1.67;;;20.50;50.40;;;;;;4970241;28;20043;-51
2022/09/23 11:05:34;;;;;;;2.58;1.90;;;20.70;49.30;;;;;;4968147;28;20065;-52
2022/09/23 11:08:01;;;;;;;10.23;2.33;;;20.70;49.80;;;;;;4967590;28;20053;-51
2022/09/23 11:10:51;;;;;;;2.47;1.40;;;20.90;49.60;;;;;;4970683;28;20045;-55
2022/09/23 11:13:54;;;;;;;4.38;1.40;;;21.00;47.60;;;;;;4969259;28;20517;-54
2022/09/23 11:16:49;;;;;;;2.20;1.15;;;21.20;47.60;;;;;;4980757;28;20077;-54
2022/09/23 11:19:40;;;;;;;3.05;1.33;;;21.40;47.50;;;;;;4991632;28;20061;-52
2022/09/23 11:22:19;;;;;;;2.13;1.38;;;21.50;46.50;;;;;;4972485;28;20495;-50
2022/09/23 11:25:01;;;;;;;3.53;1.33;;;21.60;46.80;;;;;;4974771;28;20097;-54
2022/09/23 11:27:38;;;;;;;1.95;1.40;;;21.70;46.40;;;;;;4975679;28;20047;-55
2022/09/23 11:30:18;;;;;;;2.60;1.30;;;21.80;46.80;;;;;;4974024;28;20563;-53
2022/09/23 11:33:17;;;;;;;2.08;1.60;;;22.00;45.90;;;;;;4974210;28;20139;-52
2022/09/23 11:35:49;;;;;;;2.53;1.63;;;22.00;46.10;;;;;;4942127;28;20058;-53
2022/09/23 11:38:24;;;;;;;5.88;2.60;;;22.20;46.00;;;;;;4956384;28;20089;-52
2022/09/23 11:40:56;;;;;;;2.15;1.30;;;22.20;45.40;;;;;;4972409;28;20068;-54
2022/09/23 11:43:24;;;;;;;;;;;22.30;45.60;;;;;;4973274;28;20122;-54
2022/09/23 11:46:09;;;;;;;1.48;1.05;;;22.40;46.00;;;;;;4975246;28;19922;-53
2022/09/23 11:48:53;;;;;;;2.40;1.42;;;22.50;44.90;;;;;;4952022;28;20050;-54
2022/09/23 11:51:45;;;;;;;2.85;1.50;;;22.50;43.10;;;;;;4973222;28;20034;-54
2022/09/23 11:54:12;;;;;;;;;;;22.60;44.60;;;;;;4951278;28;20065;-55
2022/09/23 11:56:52;;;;;;;2.40;1.30;;;22.70;45.70;;;;;;4973805;28;19921;-51
2022/09/23 11:59:40;;;;;;;1.67;1.10;;;22.70;44.60;;;;;;4971562;28;20049;-51
2022/09/23 12:02:17;;;;;;;2.20;1.15;;;22.70;42.10;;;;;;4970301;28;20113;-55
2022/09/23 12:05:16;;;;;;;3.95;1.52;;;22.80;42.40;;;;;;4954343;29;20049;-54
2022/09/23 12:08:22;;;;;;;1.65;1.08;;;22.80;41.90;;;;;;4974357;28;20070;-50
2022/09/23 12:11:00;;;;;;;2.10;1.38;;;22.80;41.40;;;;;;4973547;28;20047;-52
2022/09/23 12:13:37;;;;;;;3.95;1.33;;;22.80;42.50;;;;;;4971861;28;20057;-54
2022/09/23 12:16:31;;;;;;;1.27;1.17;;;22.70;43.00;;;;;;4973861;28;21229;-55
2022/09/23 12:19:09;;;;;;;2.15;1.50;;;22.70;43.50;;;;;;4966900;28;20043;-50
2022/09/23 12:21:52;;;;;;;3.33;1.33;;;22.70;43.20;;;;;;4965856;28;20415;-53
2022/09/23 12:24:31;;;;;;;1.35;1.23;;;22.70;43.00;;;;;;4957016;28;20055;-54
2022/09/23 12:27:04;;;;;;;3.35;1.50;;;22.70;43.20;;;;;;4971426;28;20110;-52
2022/09/23 12:29:31;;;;;;;3.65;2.00;;;22.70;42.90;;;;;;4952593;28;20047;-54
2022/09/23 12:31:58;;;;;;;2.03;1.08;;;22.80;42.60;;;;;;4971992;28;20117;-51
2022/09/23 12:34:47;;;;;;;1.55;1.20;;;22.80;42.20;;;;;;4969917;28;20047;-54
2022/09/23 12:37:36;;;;;;;3.00;1.83;;;22.80;42.50;;;;;;4968793;28;20073;-55
2022/09/23 12:40:29;;;;;;;2.67;1.60;;;22.80;42.00;;;;;;4972139;28;20047;-53
2022/09/23 12:43:00;;;;;;;3.17;2.28;;;22.80;41.90;;;;;;4970872;28;20057;-51
2022/09/23 12:45:31;;;;;;;4.38;1.77;;;22.70;41.80;;;;;;4971635;28;20038;-54
2022/09/23 12:48:21;;;;;;;3.10;2.13;;;22.70;42.10;;;;;;4972945;28;20399;-52
2022/09/23 12:51:14;;;;;;;1.83;1.40;;;22.70;42.80;;;;;;4943830;28;20426;-51
2022/09/23 12:53:49;;;;;;;2.50;1.95;;;22.70;41.90;;;;;;4971603;28;20097;-50
2022/09/23 12:56:29;;;;;;;2.55;1.42;;;22.70;42.30;;;;;;4970562;28;20046;-55
2022/09/23 12:58:57;;;;;;;2.65;1.23;;;22.60;42.50;;;;;;4972225;28;20075;-53
2022/09/23 13:01:26;;;;;;;1.75;1.10;;;22.70;42.40;;;;;;4970826;28;20046;-52
2022/09/23 13:07:02;;;;;;;3.10;1.15;;;22.60;43.10;;;;;;4970890;28;20035;-53
2022/09/23 13:09:32;;;;;;;2.88;1.13;;;22.60;42.90;;;;;;4971807;28;20236;-51
2022/09/23 13:12:02;;;;;;;3.40;1.30;;;22.60;43.40;;;;;;4971109;28;20027;-52
2022/09/23 13:14:31;;;;;;;3.58;1.52;;;22.70;43.10;;;;;;4970757;28;20074;-53
2022/09/23 13:16:59;;;;;;;2.90;1.60;;;22.70;43.10;;;;;;4967733;28;20043;-55
2022/09/23 13:19:26;;;;;;;1.88;1.42;;;22.70;43.40;;;;;;4970104;28;20483;-52
2022/09/23 13:21:52;;;;;;;2.85;1.58;;;22.80;43.50;;;;;;4969187;28;20380;-51
2022/09/23 13:24:19;;;;;;;3.05;1.65;;;22.90;43.50;;;;;;4968865;28;20061;-55
2022/09/23 13:26:49;;;;;;;2.83;1.50;;;23.00;43.40;;;;;;4969759;28;20050;-54
2022/09/23 13:29:26;;;;;;;3.38;1.60;;;23.10;43.20;;;;;;4902452;28;1943749;-51
2022/09/23 13:31:56;;;;;;;3.20;1.98;;;23.30;42.60;;;;;;4969962;28;20117;-55
2022/09/23 13:34:29;;;;;;;2.78;1.40;;;23.40;42.50;;;;;;4970622;28;20051;-55
2022/09/23 13:36:55;;;;;;;4.43;1.30;;;23.40;42.20;;;;;;4968681;28;20054;-55
2022/09/23 13:39:27;;;;;;;3.58;1.30;;;23.50;42.50;;;;;;4970490;28;20042;-54
2022/09/23 13:42:00;;;;;;;2.03;1.50;;;23.70;42.20;;;;;;4969693;28;20050;-54
2022/09/23 13:44:27;;;;;;;;;;;23.70;41.80;;;;;;4969897;28;20054;-52